Portland, Oregon
Current Conditions -  °F | °C
As of 4:53 PM on Sunday 23 Nov 2014 (Local Time) from KPDX Reporting Station
Overcast Overcast  
Wind Chill: 50°   Ceiling: 6000
Heat Index: 50°   Visibility: 10mi
Dew Point: 49°   Wind: 6mph
Humidity: 96%   Direction: 150°SSE
Pressure: 30.29"   Gusts: NA
Location:  45.51°N, 122.67°W
Report Text: KPDX 240053Z 15005KT 10SM SCT010 SCT036 OVC060 10/09 A3029 RMK AO2 RAB12E48 SLP257 P0001 T01000094
Loading
Personal Weather Stations






























Interactive Weather Map New forecast layout! Learn more

10-Day Weather Forecast

Advertisements
Track Severe Weather on mobile